Barbara P — CQHY — position and weather

sailwx.info

Track history (hours):
 
Tides and Currents Weather Stations Pressure Air Temp Water Temp Dewpoint Dewpoint Depression Visibility Wind Speed Wind Dir Waves Ship Positions

Barbara P

Last reported at 2018-Apr-26 06:00 UTC. Time now 2018-Apr-26 06:03 UTC.
Position N 28°23' W 016°04'.

Length 139 m; draft 7.1 m.

Type: Ship (hazmat cat A). MMSI: 255805600.

Date/timePositionNaut miles runAvg speedWind from/ knotsBaromVisibWave heightAir tempDewpointWater temp
2018-Apr-26 06:00N 28°23' W 016°04'611.3
2018-Apr-26 05:30N 28°20' W 015°58'611.5
2018-Apr-26 05:00N 28°18' W 015°52'611.8
2018-Apr-26 04:30N 28°16' W 015°46'611.9
2018-Apr-26 04:00N 28°15' W 015°39'612.0
2018-Apr-26 03:31N 28°14' W 015°33'612.1
2018-Apr-26 03:00N 28°13' W 015°26'5 9.3
2018-Apr-26 02:30N 28°09' W 015°22'3 5.6
2018-Apr-26 02:00N 28°08' W 015°25'0 0.1
2018-Apr-26 01:30N 28°08' W 015°25'0 0.0
2018-Apr-26 01:00N 28°08' W 015°25'0 0.0
2018-Apr-26 00:30N 28°08' W 015°25'0 0.0
2018-Apr-26 00:00N 28°08' W 015°25'0 0.0
2018-Apr-25 23:30N 28°08' W 015°25'0 0.0
2018-Apr-25 23:00N 28°08' W 015°25'0 0.0
2018-Apr-25 22:30N 28°08' W 015°25'0 0.0
2018-Apr-25 22:00N 28°08' W 015°25'0 0.0
2018-Apr-25 21:30N 28°08' W 015°25'0 0.0
2018-Apr-25 21:00N 28°08' W 015°25'0 0.0
2018-Apr-25 20:30N 28°08' W 015°25'0 0.0
2018-Apr-25 20:00N 28°08' W 015°25'0 0.0
2018-Apr-25 19:30N 28°08' W 015°25'0 0.0
2018-Apr-25 19:00N 28°08' W 015°25'0 0.0
2018-Apr-25 18:30N 28°08' W 015°25'0 0.0
2018-Apr-25 18:00N 28°08' W 015°25'0 0.0
2018-Apr-25 17:30N 28°08' W 015°25'0 0.0
2018-Apr-25 16:58N 28°08' W 015°25'0 0.0
2018-Apr-25 16:30N 28°08' W 015°25'0 0.0
2018-Apr-25 15:59N 28°08' W 015°25'0 0.0
2018-Apr-25 15:30N 28°08' W 015°25'0 0.0
2018-Apr-25 15:00N 28°08' W 015°25'0 0.0
2018-Apr-25 14:30N 28°08' W 015°25'0 0.0
2018-Apr-25 14:00N 28°08' W 015°25'0 0.0
2018-Apr-25 13:27N 28°08' W 015°25'0 0.0
2018-Apr-25 13:00N 28°08' W 015°25'0 0.0
2018-Apr-25 12:30N 28°08' W 015°25'0 0.0
2018-Apr-25 12:00N 28°08' W 015°25'0 0.0
2018-Apr-25 11:30N 28°08' W 015°25'0 0.0
2018-Apr-25 11:00N 28°08' W 015°25'0 0.0
2018-Apr-25 10:30N 28°08' W 015°25'0 0.0
2018-Apr-25 10:00N 28°08' W 015°25'0 0.0
2018-Apr-25 09:29N 28°08' W 015°25'0 0.0
2018-Apr-25 08:59N 28°08' W 015°25'0 0.0
2018-Apr-25 08:30N 28°08' W 015°25'0 0.0
2018-Apr-25 08:00N 28°08' W 015°25'0 0.0
2018-Apr-25 07:30N 28°08' W 015°25'0 0.0
2018-Apr-25 07:00N 28°08' W 015°25'0 0.0
2018-Apr-25 06:30N 28°08' W 015°25'0 0.9
2018-Apr-25 06:00N 28°08' W 015°25'2 4.1
2018-Apr-25 05:30N 28°08' W 015°23'713.0
2018-Apr-25 05:00N 28°13' W 015°27'815.5
2018-Apr-25 04:30N 28°15' W 015°36'815.4
2018-Apr-25 04:00N 28°16' W 015°44'815.0
2018-Apr-25 03:30N 28°18' W 015°53'815.4
2018-Apr-25 03:00N 28°21' W 016°00'815.4
2018-Apr-25 02:30N 28°25' W 016°08'612.5
2018-Apr-25 02:00N 28°29' W 016°13'0 0.3
2018-Apr-25 01:29N 28°29' W 016°13'0 0.0
2018-Apr-25 00:59N 28°29' W 016°13'0 0.0
2018-Apr-25 00:29N 28°29' W 016°13'0 0.0
2018-Apr-24 23:59N 28°29' W 016°13'0 0.0
2018-Apr-24 23:29N 28°29' W 016°13'0 0.0
2018-Apr-24 22:59N 28°29' W 016°13'0 0.0
2018-Apr-24 22:29N 28°29' W 016°13'0 0.0
2018-Apr-24 21:59N 28°29' W 016°13'0 0.0
2018-Apr-24 21:29N 28°29' W 016°13'0 0.0
2018-Apr-24 20:59N 28°29' W 016°13'0 0.0
2018-Apr-24 20:29N 28°29' W 016°13'0 0.0
2018-Apr-24 19:59N 28°29' W 016°13'0 0.0
2018-Apr-24 19:29N 28°29' W 016°13'0 0.0
2018-Apr-24 18:59N 28°29' W 016°13'0 0.0
2018-Apr-24 18:29N 28°29' W 016°13'0 0.0
2018-Apr-24 17:59N 28°29' W 016°13'0 0.0
2018-Apr-24 17:29N 28°29' W 016°13'0 0.0
2018-Apr-24 16:59N 28°29' W 016°13'1 1.2
2018-Apr-24 16:30N 28°29' W 016°14'4 7.5
2018-Apr-24 16:00N 28°29' W 016°10'714.8
2018-Apr-24 15:30N 28°33' W 016°03'816.4
2018-Apr-24 15:00N 28°39' W 015°56'815.5
2018-Apr-24 14:30N 28°43' W 015°49'916.2
2018-Apr-24 13:56N 28°49' W 015°41'716.1
2018-Apr-24 13:30N 28°54' W 015°35'1316.0
2018-Apr-24 12:42N 29°03' W 015°24'65116.2
2018-Apr-22 20:24N 35°59' W 005°30'614.5
2018-Apr-22 20:01N 36°01' W 005°23'714.3
2018-Apr-22 19:30N 36°03' W 005°15'20415.4
2018-Apr-22 06:19N 37°06' W 001°14'617.1
2018-Apr-22 05:59N 37°10' W 001°09'817.1
2018-Apr-22 05:30N 37°15' W 001°01'816.8
2018-Apr-22 05:01N 37°21' W 000°53'816.7
2018-Apr-22 04:31N 37°27' W 000°46'815.6
2018-Apr-22 04:01N 37°31' W 000°38'816.6
2018-Apr-22 03:31N 37°37' W 000°31'816.7
2018-Apr-22 03:01N 37°44' W 000°25'916.6
2018-Apr-22 02:29N 37°52' W 000°19'816.6
2018-Apr-22 02:00N 37°58' W 000°13'916.8
2018-Apr-22 01:30N 38°06' W 000°08'1816.8
2018-Apr-22 00:27N 38°20' E 000°05'816.5
2018-Apr-21 23:56N 38°28' E 000°10'6614.8
2018-Apr-21 19:31N 39°32' W 000°07'017.1
2018-Apr-21 19:30N 39°32' W 000°07'714.6
2018-Apr-21 19:00N 39°38' W 000°13'1 0.5
2018-Apr-21 17:37N 39°39' W 000°13'0 0.0
2018-Apr-21 08:49N 39°39' W 000°13'0 0.3
2018-Apr-21 08:27N 39°39' W 000°13'3 6.9
2018-Apr-21 07:59N 39°37' W 000°10'11313.0
2018-Apr-20 23:17N 40°51' E 001°43'413.8
2018-Apr-20 22:59N 40°54' E 001°46'714.0
2018-Apr-20 22:30N 40°59' E 001°52'713.6
2018-Apr-20 21:57N 41°04' E 001°59'816.6
2018-Apr-20 21:30N 41°10' E 002°05'816.3
2018-Apr-20 21:00N 41°17' E 002°11'3 6.8
2018-Apr-20 20:30N 41°21' E 002°10'0 0.3
2018-Apr-20 19:45N 41°21' E 002°10'0 0.0
2018-Apr-20 19:30N 41°21' E 002°10'0 0.0
2018-Apr-20 18:48N 41°21' E 002°10'0 0.0
2018-Apr-20 18:30N 41°21' E 002°10'0 0.0
2018-Apr-20 18:00N 41°21' E 002°10'0 0.0
2018-Apr-20 17:30N 41°21' E 002°10'0 0.0
2018-Apr-20 17:00N 41°21' E 002°10'0 0.0
2018-Apr-20 16:30N 41°21' E 002°10'0 0.0
2018-Apr-20 16:00N 41°21' E 002°10'0 0.0
2018-Apr-20 15:30N 41°21' E 002°10'0 0.0
2018-Apr-20 15:00N 41°21' E 002°10'0 0.0
2018-Apr-20 14:30N 41°21' E 002°10'0 0.0
2018-Apr-20 13:42N 41°21' E 002°10'0 0.0
2018-Apr-20 13:27N 41°21' E 002°10'0 0.0
2018-Apr-20 13:00N 41°21' E 002°10'0 0.0
2018-Apr-20 12:30N 41°21' E 002°10'0 0.0
2018-Apr-20 12:00N 41°21' E 002°10'0 0.0
2018-Apr-20 11:30N 41°21' E 002°10'0 0.0
2018-Apr-20 11:00N 41°21' E 002°10'0 0.0
2018-Apr-20 10:30N 41°21' E 002°10'0 0.0
2018-Apr-20 10:00N 41°21' E 002°10'0 0.0
2018-Apr-20 09:00N 41°21' E 002°10'0 0.0
2018-Apr-20 08:30N 41°21' E 002°10'0 0.0
2018-Apr-20 08:00N 41°21' E 002°10'0 0.0
2018-Apr-20 07:30N 41°21' E 002°10'0 0.0
2018-Apr-20 07:00N 41°21' E 002°10'0 0.0
2018-Apr-20 06:30N 41°21' E 002°10'0 0.0
2018-Apr-20 06:00N 41°21' E 002°10'0 0.0
2018-Apr-20 05:30N 41°21' E 002°10'0 0.0
2018-Apr-20 04:51N 41°21' E 002°10'0 0.0
2018-Apr-20 04:30N 41°21' E 002°10'0 0.0
2018-Apr-20 04:00N 41°21' E 002°10'0 0.0
2018-Apr-20 03:27N 41°21' E 002°10'0 0.0
2018-Apr-20 03:00N 41°21' E 002°10'0 0.0
2018-Apr-20 02:27N 41°21' E 002°10'0 0.0
2018-Apr-20 02:00N 41°21' E 002°10'0 0.0
2018-Apr-20 01:30N 41°21' E 002°10'0 0.0
2018-Apr-20 01:00N 41°21' E 002°10'0 0.0
2018-Apr-20 00:30N 41°21' E 002°10'0 0.0
2018-Apr-20 00:00N 41°21' E 002°10'0 0.0
2018-Apr-19 23:30N 41°21' E 002°10'0 0.0
2018-Apr-19 23:00N 41°21' E 002°10'0 0.0
2018-Apr-19 22:27N 41°21' E 002°10'0 0.0
2018-Apr-19 21:57N 41°21' E 002°10'0 0.0
2018-Apr-19 21:30N 41°21' E 002°10'0 0.0
2018-Apr-19 21:00N 41°21' E 002°10'0 0.0
2018-Apr-19 20:30N 41°21' E 002°10'0 0.0
2018-Apr-19 20:00N 41°21' E 002°10'0 0.0
2018-Apr-19 19:21N 41°21' E 002°10'0 0.0
2018-Apr-19 19:00N 41°21' E 002°10'0 0.0
2018-Apr-19 18:27N 41°21' E 002°10'0 0.0
2018-Apr-19 17:57N 41°21' E 002°10'0 0.0
2018-Apr-19 17:30N 41°21' E 002°10'0 0.0
2018-Apr-19 16:57N 41°21' E 002°10'0 0.0
2018-Apr-19 16:27N 41°21' E 002°10'0 0.0
2018-Apr-19 15:57N 41°21' E 002°10'0 0.0
2018-Apr-19 15:27N 41°21' E 002°10'0 0.0
2018-Apr-19 14:51N 41°21' E 002°10'0 0.0
2018-Apr-19 14:27N 41°21' E 002°10'0 0.0
2018-Apr-19 14:00N 41°21' E 002°10'1 1.7
2018-Apr-19 13:30N 41°20' E 002°10'1 2.2
2018-Apr-19 12:59N 41°19' E 002°11'0 0.2
2018-Apr-19 12:29N 41°19' E 002°11'0 0.0
2018-Apr-19 11:59N 41°19' E 002°11'0 0.0
2018-Apr-19 11:29N 41°19' E 002°11'0 0.0
2018-Apr-19 10:59N 41°19' E 002°11'0 0.0
2018-Apr-19 10:29N 41°19' E 002°11'0 0.1
2018-Apr-19 09:59N 41°19' E 002°11'0 0.0
2018-Apr-19 09:29N 41°19' E 002°11'0 0.0
2018-Apr-19 08:59N 41°19' E 002°11'0 0.0
2018-Apr-19 08:29N 41°19' E 002°11'0 0.0
2018-Apr-19 07:59N 41°19' E 002°11'0 0.0
2018-Apr-19 07:29N 41°19' E 002°11'0 0.0
2018-Apr-19 06:59N 41°19' E 002°11'0 0.0
2018-Apr-19 06:29N 41°19' E 002°11'0 0.0
2018-Apr-19 05:59N 41°19' E 002°11'0 0.0
2018-Apr-19 05:29N 41°19' E 002°11'0 0.0
2018-Apr-19 04:59N 41°19' E 002°11'0 0.0
2018-Apr-19 04:26N 41°19' E 002°11'0 0.0
2018-Apr-19 03:59N 41°19' E 002°11'0 0.0
2018-Apr-19 03:26N 41°19' E 002°11'0 0.0
2018-Apr-19 02:56N 41°19' E 002°11'0 0.0
2018-Apr-19 02:26N 41°19' E 002°11'0 0.0
2018-Apr-19 01:53N 41°19' E 002°11'0 0.0
2018-Apr-19 01:29N 41°19' E 002°11'0 0.0
2018-Apr-19 00:59N 41°19' E 002°11'0 0.0
2018-Apr-19 00:29N 41°19' E 002°11'0 0.0
2018-Apr-18 23:59N 41°19' E 002°11'0 0.1
2018-Apr-18 23:29N 41°19' E 002°11'0 0.1
2018-Apr-18 22:59N 41°19' E 002°11'0 0.1
2018-Apr-18 22:29N 41°19' E 002°11'0 0.0
2018-Apr-18 21:59N 41°19' E 002°11'0 0.0
2018-Apr-18 21:29N 41°19' E 002°11'0 0.1
2018-Apr-18 20:59N 41°19' E 002°11'2 3.2
2018-Apr-18 20:30N 41°21' E 002°10'0 0.4
2018-Apr-18 20:00N 41°21' E 002°10'0 0.0
2018-Apr-18 19:24N 41°21' E 002°10'0 0.0
2018-Apr-18 19:00N 41°21' E 002°10'0 0.0
2018-Apr-18 18:30N 41°21' E 002°10'0 0.0
2018-Apr-18 18:00N 41°21' E 002°10'0 0.0
2018-Apr-18 17:30N 41°21' E 002°10'0 0.0
2018-Apr-18 17:00N 41°21' E 002°10'0 0.0
2018-Apr-18 16:27N 41°21' E 002°10'0 0.0
2018-Apr-18 16:00N 41°21' E 002°10'0 0.0
2018-Apr-18 15:30N 41°21' E 002°10'0 0.0
2018-Apr-18 15:00N 41°21' E 002°10'0 0.0
2018-Apr-18 14:30N 41°21' E 002°10'0 0.0
2018-Apr-18 14:00N 41°21' E 002°10'0 0.0
2018-Apr-18 13:30N 41°21' E 002°10'0 0.0
2018-Apr-18 13:00N 41°21' E 002°10'0 0.0
2018-Apr-18 12:30N 41°21' E 002°10'0 0.0
2018-Apr-18 12:00N 41°21' E 002°10'0 0.0
2018-Apr-18 11:30N 41°21' E 002°10'0 0.0
2018-Apr-18 11:00N 41°21' E 002°10'0 0.0
2018-Apr-18 10:30N 41°21' E 002°10'0 0.0
2018-Apr-18 10:00N 41°21' E 002°10'0 0.0
2018-Apr-18 09:30N 41°21' E 002°10'0 0.0
2018-Apr-18 09:00N 41°21' E 002°10'0 0.0
2018-Apr-18 08:30N 41°21' E 002°10'0 0.0
2018-Apr-18 08:00N 41°21' E 002°10'0 0.0
2018-Apr-18 07:30N 41°21' E 002°10'0 0.0
2018-Apr-18 07:00N 41°21' E 002°10'0 0.0
2018-Apr-18 06:30N 41°21' E 002°10'2 4.9
2018-Apr-18 06:00N 41°18' E 002°10'4 7.6
2018-Apr-18 05:31N 41°15' E 002°12'1 1.2
2018-Apr-18 05:00N 41°14' E 002°11'0 0.9
2018-Apr-18 04:31N 41°14' E 002°10'4 7.8
2018-Apr-18 04:00N 41°12' E 002°07'612.8
2018-Apr-18 03:30N 41°07' E 002°01'612.8
2018-Apr-18 03:00N 41°02' E 001°55'612.6
2018-Apr-18 02:30N 40°57' E 001°50'612.9
2018-Apr-18 02:00N 40°52' E 001°44'713.3
2018-Apr-18 01:30N 40°47' E 001°39'712.7
2018-Apr-18 00:56N 40°42' E 001°32'812.8
2018-Apr-18 00:19N 40°36' E 001°25'512.9
2018-Apr-17 23:58N 40°33' E 001°20'7413.3
2018-Apr-17 18:23N 39°45' E 000°06'613.2
2018-Apr-17 17:56N 39°42' E 000°00'613.1
2018-Apr-17 17:28N 39°38' W 000°06'610.1
2018-Apr-17 16:55N 39°39' W 000°13'0 0.0
2018-Apr-17 16:30N 39°39' W 000°13'0 0.0
2018-Apr-17 16:00N 39°39' W 000°13'0 0.0
2018-Apr-17 15:24N 39°39' W 000°13'0 0.0
2018-Apr-17 15:00N 39°39' W 000°13'0 0.0
2018-Apr-17 14:24N 39°39' W 000°13'0 0.0
2018-Apr-17 13:54N 39°39' W 000°13'  
Track history (hours):
 
Tides and Currents Weather Stations Pressure Air Temp Water Temp Dewpoint Dewpoint Depression Visibility Wind Speed Wind Dir Waves Ship Positions

Barbara P

Last reported at 2018-Apr-26 06:00 UTC. Time now 2018-Apr-26 06:03 UTC.
Position N 28°23' W 016°04'.

Length 139 m; draft 7.1 m.

Type: Ship (hazmat cat A). MMSI: 255805600.

Date/timePositionNaut miles runAvg speedWind from/ knotsBaromVisibWave heightAir tempDewpointWater temp
2018-Apr-26 06:00N 28°23' W 016°04'611.3
2018-Apr-26 05:30N 28°20' W 015°58'611.5
2018-Apr-26 05:00N 28°18' W 015°52'611.8
2018-Apr-26 04:30N 28°16' W 015°46'611.9
2018-Apr-26 04:00N 28°15' W 015°39'612.0
2018-Apr-26 03:31N 28°14' W 015°33'612.1
2018-Apr-26 03:00N 28°13' W 015°26'5 9.3
2018-Apr-26 02:30N 28°09' W 015°22'3 5.6
2018-Apr-26 02:00N 28°08' W 015°25'0 0.1
2018-Apr-26 01:30N 28°08' W 015°25'0 0.0
2018-Apr-26 01:00N 28°08' W 015°25'0 0.0
2018-Apr-26 00:30N 28°08' W 015°25'0 0.0
2018-Apr-26 00:00N 28°08' W 015°25'0 0.0
2018-Apr-25 23:30N 28°08' W 015°25'0 0.0
2018-Apr-25 23:00N 28°08' W 015°25'0 0.0
2018-Apr-25 22:30N 28°08' W 015°25'0 0.0
2018-Apr-25 22:00N 28°08' W 015°25'0 0.0
2018-Apr-25 21:30N 28°08' W 015°25'0 0.0
2018-Apr-25 21:00N 28°08' W 015°25'0 0.0
2018-Apr-25 20:30N 28°08' W 015°25'0 0.0
2018-Apr-25 20:00N 28°08' W 015°25'0 0.0
2018-Apr-25 19:30N 28°08' W 015°25'0 0.0
2018-Apr-25 19:00N 28°08' W 015°25'0 0.0
2018-Apr-25 18:30N 28°08' W 015°25'0 0.0
2018-Apr-25 18:00N 28°08' W 015°25'0 0.0
2018-Apr-25 17:30N 28°08' W 015°25'0 0.0
2018-Apr-25 16:58N 28°08' W 015°25'0 0.0
2018-Apr-25 16:30N 28°08' W 015°25'0 0.0
2018-Apr-25 15:59N 28°08' W 015°25'0 0.0
2018-Apr-25 15:30N 28°08' W 015°25'0 0.0
2018-Apr-25 15:00N 28°08' W 015°25'0 0.0
2018-Apr-25 14:30N 28°08' W 015°25'0 0.0
2018-Apr-25 14:00N 28°08' W 015°25'0 0.0
2018-Apr-25 13:27N 28°08' W 015°25'0 0.0
2018-Apr-25 13:00N 28°08' W 015°25'0 0.0
2018-Apr-25 12:30N 28°08' W 015°25'0 0.0
2018-Apr-25 12:00N 28°08' W 015°25'0 0.0
2018-Apr-25 11:30N 28°08' W 015°25'0 0.0
2018-Apr-25 11:00N 28°08' W 015°25'0 0.0
2018-Apr-25 10:30N 28°08' W 015°25'0 0.0
2018-Apr-25 10:00N 28°08' W 015°25'0 0.0
2018-Apr-25 09:29N 28°08' W 015°25'0 0.0
2018-Apr-25 08:59N 28°08' W 015°25'0 0.0
2018-Apr-25 08:30N 28°08' W 015°25'0 0.0
2018-Apr-25 08:00N 28°08' W 015°25'0 0.0
2018-Apr-25 07:30N 28°08' W 015°25'0 0.0
2018-Apr-25 07:00N 28°08' W 015°25'0 0.0
2018-Apr-25 06:30N 28°08' W 015°25'0 0.9
2018-Apr-25 06:00N 28°08' W 015°25'2 4.1
2018-Apr-25 05:30N 28°08' W 015°23'713.0
2018-Apr-25 05:00N 28°13' W 015°27'815.5
2018-Apr-25 04:30N 28°15' W 015°36'815.4
2018-Apr-25 04:00N 28°16' W 015°44'815.0
2018-Apr-25 03:30N 28°18' W 015°53'815.4
2018-Apr-25 03:00N 28°21' W 016°00'815.4
2018-Apr-25 02:30N 28°25' W 016°08'612.5
2018-Apr-25 02:00N 28°29' W 016°13'0 0.3
2018-Apr-25 01:29N 28°29' W 016°13'0 0.0
2018-Apr-25 00:59N 28°29' W 016°13'0 0.0
2018-Apr-25 00:29N 28°29' W 016°13'0 0.0
2018-Apr-24 23:59N 28°29' W 016°13'0 0.0
2018-Apr-24 23:29N 28°29' W 016°13'0 0.0
2018-Apr-24 22:59N 28°29' W 016°13'0 0.0
2018-Apr-24 22:29N 28°29' W 016°13'0 0.0
2018-Apr-24 21:59N 28°29' W 016°13'0 0.0
2018-Apr-24 21:29N 28°29' W 016°13'0 0.0
2018-Apr-24 20:59N 28°29' W 016°13'0 0.0
2018-Apr-24 20:29N 28°29' W 016°13'0 0.0
2018-Apr-24 19:59N 28°29' W 016°13'0 0.0
2018-Apr-24 19:29N 28°29' W 016°13'0 0.0
2018-Apr-24 18:59N 28°29' W 016°13'0 0.0
2018-Apr-24 18:29N 28°29' W 016°13'0 0.0
2018-Apr-24 17:59N 28°29' W 016°13'0 0.0
2018-Apr-24 17:29N 28°29' W 016°13'0 0.0
2018-Apr-24 16:59N 28°29' W 016°13'1 1.2
2018-Apr-24 16:30N 28°29' W 016°14'4 7.5
2018-Apr-24 16:00N 28°29' W 016°10'714.8
2018-Apr-24 15:30N 28°33' W 016°03'816.4
2018-Apr-24 15:00N 28°39' W 015°56'815.5
2018-Apr-24 14:30N 28°43' W 015°49'916.2
2018-Apr-24 13:56N 28°49' W 015°41'716.1
2018-Apr-24 13:30N 28°54' W 015°35'1316.0
2018-Apr-24 12:42N 29°03' W 015°24'65116.2
2018-Apr-22 20:24N 35°59' W 005°30'614.5
2018-Apr-22 20:01N 36°01' W 005°23'714.3
2018-Apr-22 19:30N 36°03' W 005°15'20415.4
2018-Apr-22 06:19N 37°06' W 001°14'617.1
2018-Apr-22 05:59N 37°10' W 001°09'817.1
2018-Apr-22 05:30N 37°15' W 001°01'816.8
2018-Apr-22 05:01N 37°21' W 000°53'816.7
2018-Apr-22 04:31N 37°27' W 000°46'815.6
2018-Apr-22 04:01N 37°31' W 000°38'816.6
2018-Apr-22 03:31N 37°37' W 000°31'816.7
2018-Apr-22 03:01N 37°44' W 000°25'916.6
2018-Apr-22 02:29N 37°52' W 000°19'816.6
2018-Apr-22 02:00N 37°58' W 000°13'916.8
2018-Apr-22 01:30N 38°06' W 000°08'1816.8
2018-Apr-22 00:27N 38°20' E 000°05'816.5
2018-Apr-21 23:56N 38°28' E 000°10'6614.8
2018-Apr-21 19:31N 39°32' W 000°07'017.1
2018-Apr-21 19:30N 39°32' W 000°07'714.6
2018-Apr-21 19:00N 39°38' W 000°13'1 0.5
2018-Apr-21 17:37N 39°39' W 000°13'0 0.0
2018-Apr-21 08:49N 39°39' W 000°13'0 0.3
2018-Apr-21 08:27N 39°39' W 000°13'3 6.9
2018-Apr-21 07:59N 39°37' W 000°10'11313.0
2018-Apr-20 23:17N 40°51' E 001°43'413.8
2018-Apr-20 22:59N 40°54' E 001°46'714.0
2018-Apr-20 22:30N 40°59' E 001°52'713.6
2018-Apr-20 21:57N 41°04' E 001°59'816.6
2018-Apr-20 21:30N 41°10' E 002°05'816.3
2018-Apr-20 21:00N 41°17' E 002°11'3 6.8
2018-Apr-20 20:30N 41°21' E 002°10'0 0.3
2018-Apr-20 19:45N 41°21' E 002°10'0 0.0
2018-Apr-20 19:30N 41°21' E 002°10'0 0.0
2018-Apr-20 18:48N 41°21' E 002°10'0 0.0
2018-Apr-20 18:30N 41°21' E 002°10'0 0.0
2018-Apr-20 18:00N 41°21' E 002°10'0 0.0
2018-Apr-20 17:30N 41°21' E 002°10'0 0.0
2018-Apr-20 17:00N 41°21' E 002°10'0 0.0
2018-Apr-20 16:30N 41°21' E 002°10'0 0.0
2018-Apr-20 16:00N 41°21' E 002°10'0 0.0
2018-Apr-20 15:30N 41°21' E 002°10'0 0.0
2018-Apr-20 15:00N 41°21' E 002°10'0 0.0
2018-Apr-20 14:30N 41°21' E 002°10'0 0.0
2018-Apr-20 13:42N 41°21' E 002°10'0 0.0
2018-Apr-20 13:27N 41°21' E 002°10'0 0.0
2018-Apr-20 13:00N 41°21' E 002°10'0 0.0
2018-Apr-20 12:30N 41°21' E 002°10'0 0.0
2018-Apr-20 12:00N 41°21' E 002°10'0 0.0
2018-Apr-20 11:30N 41°21' E 002°10'0 0.0
2018-Apr-20 11:00N 41°21' E 002°10'0 0.0
2018-Apr-20 10:30N 41°21' E 002°10'0 0.0
2018-Apr-20 10:00N 41°21' E 002°10'0 0.0
2018-Apr-20 09:00N 41°21' E 002°10'0 0.0
2018-Apr-20 08:30N 41°21' E 002°10'0 0.0
2018-Apr-20 08:00N 41°21' E 002°10'0 0.0
2018-Apr-20 07:30N 41°21' E 002°10'0 0.0
2018-Apr-20 07:00N 41°21' E 002°10'0 0.0
2018-Apr-20 06:30N 41°21' E 002°10'0 0.0
2018-Apr-20 06:00N 41°21' E 002°10'0 0.0
2018-Apr-20 05:30N 41°21' E 002°10'0 0.0
2018-Apr-20 04:51N 41°21' E 002°10'0 0.0
2018-Apr-20 04:30N 41°21' E 002°10'0 0.0
2018-Apr-20 04:00N 41°21' E 002°10'0 0.0
2018-Apr-20 03:27N 41°21' E 002°10'0 0.0
2018-Apr-20 03:00N 41°21' E 002°10'0 0.0
2018-Apr-20 02:27N 41°21' E 002°10'0 0.0
2018-Apr-20 02:00N 41°21' E 002°10'0 0.0
2018-Apr-20 01:30N 41°21' E 002°10'0 0.0
2018-Apr-20 01:00N 41°21' E 002°10'0 0.0
2018-Apr-20 00:30N 41°21' E 002°10'0 0.0
2018-Apr-20 00:00N 41°21' E 002°10'0 0.0
2018-Apr-19 23:30N 41°21' E 002°10'0 0.0
2018-Apr-19 23:00N 41°21' E 002°10'0 0.0
2018-Apr-19 22:27N 41°21' E 002°10'0 0.0
2018-Apr-19 21:57N 41°21' E 002°10'0 0.0
2018-Apr-19 21:30N 41°21' E 002°10'0 0.0
2018-Apr-19 21:00N 41°21' E 002°10'0 0.0
2018-Apr-19 20:30N 41°21' E 002°10'0 0.0
2018-Apr-19 20:00N 41°21' E 002°10'0 0.0
2018-Apr-19 19:21N 41°21' E 002°10'0 0.0
2018-Apr-19 19:00N 41°21' E 002°10'0 0.0
2018-Apr-19 18:27N 41°21' E 002°10'0 0.0
2018-Apr-19 17:57N 41°21' E 002°10'0 0.0
2018-Apr-19 17:30N 41°21' E 002°10'0 0.0
2018-Apr-19 16:57N 41°21' E 002°10'0 0.0
2018-Apr-19 16:27N 41°21' E 002°10'0 0.0
2018-Apr-19 15:57N 41°21' E 002°10'0 0.0
2018-Apr-19 15:27N 41°21' E 002°10'0 0.0
2018-Apr-19 14:51N 41°21' E 002°10'0 0.0
2018-Apr-19 14:27N 41°21' E 002°10'0 0.0
2018-Apr-19 14:00N 41°21' E 002°10'1 1.7
2018-Apr-19 13:30N 41°20' E 002°10'1 2.2
2018-Apr-19 12:59N 41°19' E 002°11'0 0.2
2018-Apr-19 12:29N 41°19' E 002°11'0 0.0
2018-Apr-19 11:59N 41°19' E 002°11'0 0.0
2018-Apr-19 11:29N 41°19' E 002°11'0 0.0
2018-Apr-19 10:59N 41°19' E 002°11'0 0.0
2018-Apr-19 10:29N 41°19' E 002°11'0 0.1
2018-Apr-19 09:59N 41°19' E 002°11'0 0.0
2018-Apr-19 09:29N 41°19' E 002°11'0 0.0
2018-Apr-19 08:59N 41°19' E 002°11'0 0.0
2018-Apr-19 08:29N 41°19' E 002°11'0 0.0
2018-Apr-19 07:59N 41°19' E 002°11'0 0.0
2018-Apr-19 07:29N 41°19' E 002°11'0 0.0
2018-Apr-19 06:59N 41°19' E 002°11'0 0.0
2018-Apr-19 06:29N 41°19' E 002°11'0 0.0
2018-Apr-19 05:59N 41°19' E 002°11'0 0.0
2018-Apr-19 05:29N 41°19' E 002°11'0 0.0
2018-Apr-19 04:59N 41°19' E 002°11'0 0.0
2018-Apr-19 04:26N 41°19' E 002°11'0 0.0
2018-Apr-19 03:59N 41°19' E 002°11'0 0.0
2018-Apr-19 03:26N 41°19' E 002°11'0 0.0
2018-Apr-19 02:56N 41°19' E 002°11'0 0.0
2018-Apr-19 02:26N 41°19' E 002°11'0 0.0
2018-Apr-19 01:53N 41°19' E 002°11'0 0.0
2018-Apr-19 01:29N 41°19' E 002°11'0 0.0
2018-Apr-19 00:59N 41°19' E 002°11'0 0.0
2018-Apr-19 00:29N 41°19' E 002°11'0 0.0
2018-Apr-18 23:59N 41°19' E 002°11'0 0.1
2018-Apr-18 23:29N 41°19' E 002°11'0 0.1
2018-Apr-18 22:59N 41°19' E 002°11'0 0.1
2018-Apr-18 22:29N 41°19' E 002°11'0 0.0
2018-Apr-18 21:59N 41°19' E 002°11'0 0.0
2018-Apr-18 21:29N 41°19' E 002°11'0 0.1
2018-Apr-18 20:59N 41°19' E 002°11'2 3.2
2018-Apr-18 20:30N 41°21' E 002°10'0 0.4
2018-Apr-18 20:00N 41°21' E 002°10'0 0.0
2018-Apr-18 19:24N 41°21' E 002°10'0 0.0
2018-Apr-18 19:00N 41°21' E 002°10'0 0.0
2018-Apr-18 18:30N 41°21' E 002°10'0 0.0
2018-Apr-18 18:00N 41°21' E 002°10'0 0.0
2018-Apr-18 17:30N 41°21' E 002°10'0 0.0
2018-Apr-18 17:00N 41°21' E 002°10'0 0.0
2018-Apr-18 16:27N 41°21' E 002°10'0 0.0
2018-Apr-18 16:00N 41°21' E 002°10'0 0.0
2018-Apr-18 15:30N 41°21' E 002°10'0 0.0
2018-Apr-18 15:00N 41°21' E 002°10'0 0.0
2018-Apr-18 14:30N 41°21' E 002°10'0 0.0
2018-Apr-18 14:00N 41°21' E 002°10'0 0.0
2018-Apr-18 13:30N 41°21' E 002°10'0 0.0
2018-Apr-18 13:00N 41°21' E 002°10'0 0.0
2018-Apr-18 12:30N 41°21' E 002°10'0 0.0
2018-Apr-18 12:00N 41°21' E 002°10'0 0.0
2018-Apr-18 11:30N 41°21' E 002°10'0 0.0
2018-Apr-18 11:00N 41°21' E 002°10'0 0.0
2018-Apr-18 10:30N 41°21' E 002°10'0 0.0
2018-Apr-18 10:00N 41°21' E 002°10'0 0.0
2018-Apr-18 09:30N 41°21' E 002°10'0 0.0
2018-Apr-18 09:00N 41°21' E 002°10'0 0.0
2018-Apr-18 08:30N 41°21' E 002°10'0 0.0
2018-Apr-18 08:00N 41°21' E 002°10'0 0.0
2018-Apr-18 07:30N 41°21' E 002°10'0 0.0
2018-Apr-18 07:00N 41°21' E 002°10'0 0.0
2018-Apr-18 06:30N 41°21' E 002°10'2 4.9
2018-Apr-18 06:00N 41°18' E 002°10'4 7.6
2018-Apr-18 05:31N 41°15' E 002°12'1 1.2
2018-Apr-18 05:00N 41°14' E 002°11'0 0.9
2018-Apr-18 04:31N 41°14' E 002°10'4 7.8
2018-Apr-18 04:00N 41°12' E 002°07'612.8
2018-Apr-18 03:30N 41°07' E 002°01'612.8
2018-Apr-18 03:00N 41°02' E 001°55'612.6
2018-Apr-18 02:30N 40°57' E 001°50'612.9
2018-Apr-18 02:00N 40°52' E 001°44'713.3
2018-Apr-18 01:30N 40°47' E 001°39'712.7
2018-Apr-18 00:56N 40°42' E 001°32'812.8
2018-Apr-18 00:19N 40°36' E 001°25'512.9
2018-Apr-17 23:58N 40°33' E 001°20'7413.3
2018-Apr-17 18:23N 39°45' E 000°06'613.2
2018-Apr-17 17:56N 39°42' E 000°00'613.1
2018-Apr-17 17:28N 39°38' W 000°06'610.1
2018-Apr-17 16:55N 39°39' W 000°13'0 0.0
2018-Apr-17 16:30N 39°39' W 000°13'0 0.0
2018-Apr-17 16:00N 39°39' W 000°13'0 0.0
2018-Apr-17 15:24N 39°39' W 000°13'0 0.0
2018-Apr-17 15:00N 39°39' W 000°13'0 0.0
2018-Apr-17 14:24N 39°39' W 000°13'0 0.0
2018-Apr-17 13:54N 39°39' W 000°13'  

Dump ship's entire track history